sensor_id;sensor_type;location;lat;lon;timestamp;temperature;humidity
43183;DHT22;28802;38.578;-0.066;2022-10-01T00:01:16;17.40;99.90
43183;DHT22;28802;38.578;-0.066;2022-10-01T00:03:43;17.40;99.90
43183;DHT22;28802;38.578;-0.066;2022-10-01T00:06:18;17.40;99.90
43183;DHT22;28802;38.578;-0.066;2022-10-01T00:08:46;17.40;99.90
43183;DHT22;28802;38.578;-0.066;2022-10-01T00:11:19;17.30;99.90
43183;DHT22;28802;38.578;-0.066;2022-10-01T00:13:46;17.30;99.90
43183;DHT22;28802;38.578;-0.066;2022-10-01T00:16:18;17.20;99.90
43183;DHT22;28802;38.578;-0.066;2022-10-01T00:18:45;17.20;99.90
43183;DHT22;28802;38.578;-0.066;2022-10-01T00:21:15;17.20;99.90
43183;DHT22;28802;38.578;-0.066;2022-10-01T00:23:41;17.20;99.90
43183;DHT22;28802;38.578;-0.066;2022-10-01T00:26:19;17.10;99.90
43183;DHT22;28802;38.578;-0.066;2022-10-01T00:28:48;17.10;99.90
43183;DHT22;28802;38.578;-0.066;2022-10-01T00:31:17;17.10;99.90
43183;DHT22;28802;38.578;-0.066;2022-10-01T00:33:43;17.10;99.90
43183;DHT22;28802;38.578;-0.066;2022-10-01T00:36:10;17.10;99.90
43183;DHT22;28802;38.578;-0.066;2022-10-01T00:38:37;17.10;99.90
43183;DHT22;28802;38.578;-0.066;2022-10-01T00:41:04;17.00;99.90
43183;DHT22;28802;38.578;-0.066;2022-10-01T00:43:36;17.00;99.90
43183;DHT22;28802;38.578;-0.066;2022-10-01T00:46:13;17.00;99.90
43183;DHT22;28802;38.578;-0.066;2022-10-01T00:49:19;17.00;99.90
43183;DHT22;28802;38.578;-0.066;2022-10-01T00:51:44;17.00;99.90
43183;DHT22;28802;38.578;-0.066;2022-10-01T00:54:25;17.10;99.90
43183;DHT22;28802;38.578;-0.066;2022-10-01T00:56:54;17.10;99.90
43183;DHT22;28802;38.578;-0.066;2022-10-01T00:59:22;17.00;99.90
43183;DHT22;28802;38.578;-0.066;2022-10-01T01:01:48;17.00;99.90
43183;DHT22;28802;38.578;-0.066;2022-10-01T01:04:13;17.10;99.90
43183;DHT22;28802;38.578;-0.066;2022-10-01T01:06:46;17.10;99.90
43183;DHT22;28802;38.578;-0.066;2022-10-01T01:09:19;17.10;99.90
43183;DHT22;28802;38.578;-0.066;2022-10-01T01:17:31;17.00;99.90
43183;DHT22;28802;38.578;-0.066;2022-10-01T01:20:15;17.00;99.90
43183;DHT22;28802;38.578;-0.066;2022-10-01T01:26:01;16.80;99.90
43183;DHT22;28802;38.578;-0.066;2022-10-01T01:28:36;16.80;99.90
43183;DHT22;28802;38.578;-0.066;2022-10-01T01:31:11;16.70;99.90
43183;DHT22;28802;38.578;-0.066;2022-10-01T01:33:41;16.70;99.90
43183;DHT22;28802;38.578;-0.066;2022-10-01T01:36:13;16.70;99.90
43183;DHT22;28802;38.578;-0.066;2022-10-01T01:38:57;16.60;99.90
43183;DHT22;28802;38.578;-0.066;2022-10-01T01:41:29;16.60;99.90
43183;DHT22;28802;38.578;-0.066;2022-10-01T01:44:06;16.60;99.90
43183;DHT22;28802;38.578;-0.066;2022-10-01T01:46:35;16.60;99.90
43183;DHT22;28802;38.578;-0.066;2022-10-01T01:49:03;16.60;99.90
43183;DHT22;28802;38.578;-0.066;2022-10-01T01:51:51;16.70;99.90
43183;DHT22;28802;38.578;-0.066;2022-10-01T01:54:19;16.70;99.90
43183;DHT22;28802;38.578;-0.066;2022-10-01T01:56:45;16.60;99.90
43183;DHT22;28802;38.578;-0.066;2022-10-01T01:59:14;16.60;99.90
43183;DHT22;28802;38.578;-0.066;2022-10-01T02:01:44;16.50;99.90
43183;DHT22;28802;38.578;-0.066;2022-10-01T02:07:29;16.40;99.90
43183;DHT22;28802;38.578;-0.066;2022-10-01T02:10:03;16.40;99.90
43183;DHT22;28802;38.578;-0.066;2022-10-01T02:18:24;16.40;99.90
43183;DHT22;28802;38.578;-0.066;2022-10-01T02:23:39;16.40;99.90
43183;DHT22;28802;38.578;-0.066;2022-10-01T02:26:11;16.40;99.90
43183;DHT22;28802;38.578;-0.066;2022-10-01T02:28:40;16.40;99.90
43183;DHT22;28802;38.578;-0.066;2022-10-01T02:31:07;16.40;99.90
43183;DHT22;28802;38.578;-0.066;2022-10-01T02:33:36;16.40;99.90
43183;DHT22;28802;38.578;-0.066;2022-10-01T02:36:05;16.50;99.90
43183;DHT22;28802;38.578;-0.066;2022-10-01T02:38:34;16.40;99.90
43183;DHT22;28802;38.578;-0.066;2022-10-01T02:41:03;16.50;99.90
43183;DHT22;28802;38.578;-0.066;2022-10-01T02:43:37;16.50;99.90
43183;DHT22;28802;38.578;-0.066;2022-10-01T02:46:31;16.50;99.90
43183;DHT22;28802;38.578;-0.066;2022-10-01T02:49:00;16.50;99.90
43183;DHT22;28802;38.578;-0.066;2022-10-01T02:51:55;16.50;99.90
43183;DHT22;28802;38.578;-0.066;2022-10-01T02:54:34;16.50;99.90
43183;DHT22;28802;38.578;-0.066;2022-10-01T02:57:01;16.50;99.90
43183;DHT22;28802;38.578;-0.066;2022-10-01T02:59:46;16.40;99.90
43183;DHT22;28802;38.578;-0.066;2022-10-01T03:02:12;16.40;99.90
43183;DHT22;28802;38.578;-0.066;2022-10-01T03:04:38;16.50;99.90
43183;DHT22;28802;38.578;-0.066;2022-10-01T03:07:04;16.40;99.90
43183;DHT22;28802;38.578;-0.066;2022-10-01T03:09:31;16.30;99.90
43183;DHT22;28802;38.578;-0.066;2022-10-01T03:11:59;16.30;99.90
43183;DHT22;28802;38.578;-0.066;2022-10-01T03:14:27;16.30;99.90
43183;DHT22;28802;38.578;-0.066;2022-10-01T03:16:53;16.30;99.90
43183;DHT22;28802;38.578;-0.066;2022-10-01T03:19:19;16.30;99.90
43183;DHT22;28802;38.578;-0.066;2022-10-01T03:21:46;16.30;99.90
43183;DHT22;28802;38.578;-0.066;2022-10-01T03:24:12;16.30;99.90
43183;DHT22;28802;38.578;-0.066;2022-10-01T03:26:38;16.20;99.90
43183;DHT22;28802;38.578;-0.066;2022-10-01T03:29:04;16.20;99.90
43183;DHT22;28802;38.578;-0.066;2022-10-01T03:31:30;16.20;99.90
43183;DHT22;28802;38.578;-0.066;2022-10-01T03:33:57;16.10;99.90
43183;DHT22;28802;38.578;-0.066;2022-10-01T03:36:26;16.20;99.90
43183;DHT22;28802;38.578;-0.066;2022-10-01T03:38:52;16.10;99.90
43183;DHT22;28802;38.578;-0.066;2022-10-01T03:41:18;16.10;99.90
43183;DHT22;28802;38.578;-0.066;2022-10-01T03:43:44;16.20;99.90
43183;DHT22;28802;38.578;-0.066;2022-10-01T03:46:10;16.20;99.90
43183;DHT22;28802;38.578;-0.066;2022-10-01T03:48:36;16.20;99.90
43183;DHT22;28802;38.578;-0.066;2022-10-01T03:51:02;16.20;99.90
43183;DHT22;28802;38.578;-0.066;2022-10-01T03:53:29;16.20;99.90
43183;DHT22;28802;38.578;-0.066;2022-10-01T03:55:57;16.20;99.90
43183;DHT22;28802;38.578;-0.066;2022-10-01T03:58:23;16.30;99.90
43183;DHT22;28802;38.578;-0.066;2022-10-01T04:00:49;16.40;99.90
43183;DHT22;28802;38.578;-0.066;2022-10-01T04:03:15;16.40;99.90
43183;DHT22;28802;38.578;-0.066;2022-10-01T04:05:43;16.40;99.90
43183;DHT22;28802;38.578;-0.066;2022-10-01T04:08:10;16.30;99.90
43183;DHT22;28802;38.578;-0.066;2022-10-01T04:10:37;16.30;99.90
43183;DHT22;28802;38.578;-0.066;2022-10-01T04:13:04;16.20;99.90
43183;DHT22;28802;38.578;-0.066;2022-10-01T04:15:31;16.10;99.90
43183;DHT22;28802;38.578;-0.066;2022-10-01T04:18:00;16.10;99.90
43183;DHT22;28802;38.578;-0.066;2022-10-01T04:20:35;16.20;99.90
43183;DHT22;28802;38.578;-0.066;2022-10-01T04:23:03;16.20;99.90
43183;DHT22;28802;38.578;-0.066;2022-10-01T04:25:29;16.10;99.90
43183;DHT22;28802;38.578;-0.066;2022-10-01T04:28:03;16.10;99.90
43183;DHT22;28802;38.578;-0.066;2022-10-01T04:30:32;16.10;99.90
43183;DHT22;28802;38.578;-0.066;2022-10-01T04:32:59;16.10;99.90
43183;DHT22;28802;38.578;-0.066;2022-10-01T04:35:25;16.10;99.90
43183;DHT22;28802;38.578;-0.066;2022-10-01T04:37:58;16.10;99.90
43183;DHT22;28802;38.578;-0.066;2022-10-01T04:40:26;16.10;99.90
43183;DHT22;28802;38.578;-0.066;2022-10-01T04:42:51;15.90;99.90
43183;DHT22;28802;38.578;-0.066;2022-10-01T04:45:17;16.00;99.90
43183;DHT22;28802;38.578;-0.066;2022-10-01T04:47:48;15.90;99.90
43183;DHT22;28802;38.578;-0.066;2022-10-01T04:50:15;16.00;99.90
43183;DHT22;28802;38.578;-0.066;2022-10-01T04:52:45;16.10;99.90
43183;DHT22;28802;38.578;-0.066;2022-10-01T04:55:12;16.00;99.90
43183;DHT22;28802;38.578;-0.066;2022-10-01T04:57:38;16.00;99.90
43183;DHT22;28802;38.578;-0.066;2022-10-01T05:00:10;16.00;99.90
43183;DHT22;28802;38.578;-0.066;2022-10-01T05:02:36;16.00;99.90
43183;DHT22;28802;38.578;-0.066;2022-10-01T05:05:03;15.90;99.90
43183;DHT22;28802;38.578;-0.066;2022-10-01T05:07:31;15.90;99.90
43183;DHT22;28802;38.578;-0.066;2022-10-01T05:09:57;15.90;99.90
43183;DHT22;28802;38.578;-0.066;2022-10-01T05:12:26;15.90;99.90
43183;DHT22;28802;38.578;-0.066;2022-10-01T05:14:55;15.90;99.90
43183;DHT22;28802;38.578;-0.066;2022-10-01T05:17:22;15.90;99.90
43183;DHT22;28802;38.578;-0.066;2022-10-01T05:19:48;15.80;99.90
43183;DHT22;28802;38.578;-0.066;2022-10-01T05:22:15;15.80;99.90
43183;DHT22;28802;38.578;-0.066;2022-10-01T05:24:41;15.80;99.90
43183;DHT22;28802;38.578;-0.066;2022-10-01T05:27:08;15.70;99.90
43183;DHT22;28802;38.578;-0.066;2022-10-01T05:29:41;15.70;99.90
43183;DHT22;28802;38.578;-0.066;2022-10-01T05:32:08;15.70;99.90
43183;DHT22;28802;38.578;-0.066;2022-10-01T05:34:34;15.70;99.90
43183;DHT22;28802;38.578;-0.066;2022-10-01T05:37:01;15.70;99.90
43183;DHT22;28802;38.578;-0.066;2022-10-01T05:39:28;15.60;99.90
43183;DHT22;28802;38.578;-0.066;2022-10-01T05:41:54;15.70;99.90
43183;DHT22;28802;38.578;-0.066;2022-10-01T05:44:21;15.60;99.90
43183;DHT22;28802;38.578;-0.066;2022-10-01T05:46:47;15.60;99.90
43183;DHT22;28802;38.578;-0.066;2022-10-01T05:49:13;15.60;99.90
43183;DHT22;28802;38.578;-0.066;2022-10-01T05:51:40;15.60;99.90
43183;DHT22;28802;38.578;-0.066;2022-10-01T05:54:06;15.50;99.90
43183;DHT22;28802;38.578;-0.066;2022-10-01T05:56:32;15.50;99.90
43183;DHT22;28802;38.578;-0.066;2022-10-01T05:58:58;15.50;99.90
43183;DHT22;28802;38.578;-0.066;2022-10-01T06:01:25;15.50;99.90
43183;DHT22;28802;38.578;-0.066;2022-10-01T06:03:51;15.50;99.90
43183;DHT22;28802;38.578;-0.066;2022-10-01T06:06:21;15.50;99.90
43183;DHT22;28802;38.578;-0.066;2022-10-01T06:08:47;15.50;99.90
43183;DHT22;28802;38.578;-0.066;2022-10-01T06:11:13;15.50;99.90
43183;DHT22;28802;38.578;-0.066;2022-10-01T06:13:40;15.60;99.90
43183;DHT22;28802;38.578;-0.066;2022-10-01T06:16:13;15.70;99.90
43183;DHT22;28802;38.578;-0.066;2022-10-01T06:18:40;15.80;99.90
43183;DHT22;28802;38.578;-0.066;2022-10-01T06:21:06;15.90;99.90
43183;DHT22;28802;38.578;-0.066;2022-10-01T06:23:32;16.00;99.90
43183;DHT22;28802;38.578;-0.066;2022-10-01T06:26:00;16.00;99.90
43183;DHT22;28802;38.578;-0.066;2022-10-01T06:28:26;16.10;99.90
43183;DHT22;28802;38.578;-0.066;2022-10-01T06:30:52;16.20;99.90
43183;DHT22;28802;38.578;-0.066;2022-10-01T06:33:19;16.30;99.90
43183;DHT22;28802;38.578;-0.066;2022-10-01T06:35:47;16.40;99.90
43183;DHT22;28802;38.578;-0.066;2022-10-01T06:38:14;16.50;99.90
43183;DHT22;28802;38.578;-0.066;2022-10-01T06:40:49;16.60;99.90
43183;DHT22;28802;38.578;-0.066;2022-10-01T06:43:15;16.70;99.90
43183;DHT22;28802;38.578;-0.066;2022-10-01T06:45:41;17.10;99.90
43183;DHT22;28802;38.578;-0.066;2022-10-01T06:48:10;17.50;99.90
43183;DHT22;28802;38.578;-0.066;2022-10-01T06:50:40;18.00;99.90
43183;DHT22;28802;38.578;-0.066;2022-10-01T06:53:06;18.40;99.90
43183;DHT22;28802;38.578;-0.066;2022-10-01T06:55:34;18.60;99.90
43183;DHT22;28802;38.578;-0.066;2022-10-01T06:58:02;18.60;99.90
43183;DHT22;28802;38.578;-0.066;2022-10-01T07:00:30;19.50;99.90
43183;DHT22;28802;38.578;-0.066;2022-10-01T07:02:57;20.30;99.90
43183;DHT22;28802;38.578;-0.066;2022-10-01T07:05:24;21.40;99.90
43183;DHT22;28802;38.578;-0.066;2022-10-01T07:07:50;22.40;99.90
43183;DHT22;28802;38.578;-0.066;2022-10-01T07:10:18;23.10;99.90
43183;DHT22;28802;38.578;-0.066;2022-10-01T07:12:46;23.70;99.90
43183;DHT22;28802;38.578;-0.066;2022-10-01T07:15:14;24.00;99.90
43183;DHT22;28802;38.578;-0.066;2022-10-01T07:17:45;24.70;99.90
43183;DHT22;28802;38.578;-0.066;2022-10-01T07:20:12;25.40;99.90
43183;DHT22;28802;38.578;-0.066;2022-10-01T07:22:40;26.30;99.90
43183;DHT22;28802;38.578;-0.066;2022-10-01T07:25:07;26.10;99.90
43183;DHT22;28802;38.578;-0.066;2022-10-01T07:27:32;26.10;99.90
43183;DHT22;28802;38.578;-0.066;2022-10-01T07:29:58;25.80;99.90
43183;DHT22;28802;38.578;-0.066;2022-10-01T07:32:25;26.50;99.90
43183;DHT22;28802;38.578;-0.066;2022-10-01T07:34:51;27.20;99.90
43183;DHT22;28802;38.578;-0.066;2022-10-01T07:37:17;26.90;99.90
43183;DHT22;28802;38.578;-0.066;2022-10-01T07:39:43;27.20;99.90
43183;DHT22;28802;38.578;-0.066;2022-10-01T07:42:09;27.50;99.90
43183;DHT22;28802;38.578;-0.066;2022-10-01T07:44:35;27.40;99.90
43183;DHT22;28802;38.578;-0.066;2022-10-01T07:47:01;27.90;99.90
43183;DHT22;28802;38.578;-0.066;2022-10-01T07:49:27;28.10;99.90
43183;DHT22;28802;38.578;-0.066;2022-10-01T07:51:56;27.90;99.90
43183;DHT22;28802;38.578;-0.066;2022-10-01T07:54:24;27.90;99.90
43183;DHT22;28802;38.578;-0.066;2022-10-01T07:56:51;28.10;99.90
43183;DHT22;28802;38.578;-0.066;2022-10-01T07:59:25;28.00;99.90
43183;DHT22;28802;38.578;-0.066;2022-10-01T08:01:52;28.00;99.90
43183;DHT22;28802;38.578;-0.066;2022-10-01T08:04:19;27.40;99.90
43183;DHT22;28802;38.578;-0.066;2022-10-01T08:07:04;27.40;99.90
43183;DHT22;28802;38.578;-0.066;2022-10-01T08:09:31;27.70;99.90
43183;DHT22;28802;38.578;-0.066;2022-10-01T08:11:57;28.00;99.90
43183;DHT22;28802;38.578;-0.066;2022-10-01T08:14:23;27.90;99.90
43183;DHT22;28802;38.578;-0.066;2022-10-01T08:16:57;27.90;99.90
43183;DHT22;28802;38.578;-0.066;2022-10-01T08:19:27;28.10;99.90
43183;DHT22;28802;38.578;-0.066;2022-10-01T08:21:54;29.00;99.90
43183;DHT22;28802;38.578;-0.066;2022-10-01T08:24:20;30.10;99.90
43183;DHT22;28802;38.578;-0.066;2022-10-01T08:26:58;30.50;99.90
43183;DHT22;28802;38.578;-0.066;2022-10-01T08:29:24;30.00;99.90
43183;DHT22;28802;38.578;-0.066;2022-10-01T08:31:53;29.70;99.90
43183;DHT22;28802;38.578;-0.066;2022-10-01T08:34:19;29.70;99.90
43183;DHT22;28802;38.578;-0.066;2022-10-01T08:36:49;29.30;99.90
43183;DHT22;28802;38.578;-0.066;2022-10-01T08:39:16;29.20;99.90
43183;DHT22;28802;38.578;-0.066;2022-10-01T08:44:31;28.70;99.90
43183;DHT22;28802;38.578;-0.066;2022-10-01T08:49:52;28.30;99.90
43183;DHT22;28802;38.578;-0.066;2022-10-01T08:52:32;28.10;99.90
43183;DHT22;28802;38.578;-0.066;2022-10-01T08:55:19;28.60;99.90
43183;DHT22;28802;38.578;-0.066;2022-10-01T08:57:51;27.80;99.90
43183;DHT22;28802;38.578;-0.066;2022-10-01T09:00:22;27.20;99.90
43183;DHT22;28802;38.578;-0.066;2022-10-01T09:02:49;26.80;99.90
43183;DHT22;28802;38.578;-0.066;2022-10-01T09:10:52;26.90;99.90
43183;DHT22;28802;38.578;-0.066;2022-10-01T09:21:58;26.50;99.90
43183;DHT22;28802;38.578;-0.066;2022-10-01T09:24:39;25.80;99.90
43183;DHT22;28802;38.578;-0.066;2022-10-01T09:27:24;25.70;99.90
43183;DHT22;28802;38.578;-0.066;2022-10-01T09:30:25;25.60;99.90
43183;DHT22;28802;38.578;-0.066;2022-10-01T09:40:54;25.20;99.90
43183;DHT22;28802;38.578;-0.066;2022-10-01T09:43:23;25.10;99.90
43183;DHT22;28802;38.578;-0.066;2022-10-01T09:45:51;25.20;99.90
43183;DHT22;28802;38.578;-0.066;2022-10-01T09:51:18;25.80;99.90
43183;DHT22;28802;38.578;-0.066;2022-10-01T09:56:36;24.80;99.90
43183;DHT22;28802;38.578;-0.066;2022-10-01T09:59:13;25.50;99.90
43183;DHT22;28802;38.578;-0.066;2022-10-01T10:02:01;26.00;99.90
43183;DHT22;28802;38.578;-0.066;2022-10-01T10:04:28;25.60;99.90
43183;DHT22;28802;38.578;-0.066;2022-10-01T10:07:01;26.00;99.90
43183;DHT22;28802;38.578;-0.066;2022-10-01T10:09:32;26.10;99.90
43183;DHT22;28802;38.578;-0.066;2022-10-01T10:12:00;26.50;99.90
43183;DHT22;28802;38.578;-0.066;2022-10-01T10:14:37;26.70;99.90
43183;DHT22;28802;38.578;-0.066;2022-10-01T10:17:12;26.80;99.90
43183;DHT22;28802;38.578;-0.066;2022-10-01T10:19:48;26.50;99.90
43183;DHT22;28802;38.578;-0.066;2022-10-01T10:22:26;26.60;99.90
43183;DHT22;28802;38.578;-0.066;2022-10-01T10:24:54;26.30;99.90
43183;DHT22;28802;38.578;-0.066;2022-10-01T10:27:26;26.50;99.90
43183;DHT22;28802;38.578;-0.066;2022-10-01T10:30:13;26.40;99.90
43183;DHT22;28802;38.578;-0.066;2022-10-01T10:32:41;26.20;99.90
43183;DHT22;28802;38.578;-0.066;2022-10-01T10:35:10;26.40;99.90
43183;DHT22;28802;38.578;-0.066;2022-10-01T10:37:48;26.10;99.90
43183;DHT22;28802;38.578;-0.066;2022-10-01T10:40:19;26.30;99.90
43183;DHT22;28802;38.578;-0.066;2022-10-01T10:42:50;26.30;99.90
43183;DHT22;28802;38.578;-0.066;2022-10-01T10:45:19;25.70;99.90
43183;DHT22;28802;38.578;-0.066;2022-10-01T10:47:49;26.10;99.90
43183;DHT22;28802;38.578;-0.066;2022-10-01T10:50:42;25.90;99.90
43183;DHT22;28802;38.578;-0.066;2022-10-01T10:53:25;26.00;99.90
43183;DHT22;28802;38.578;-0.066;2022-10-01T10:56:00;26.70;99.90
43183;DHT22;28802;38.578;-0.066;2022-10-01T10:58:32;26.90;99.90
43183;DHT22;28802;38.578;-0.066;2022-10-01T11:01:04;26.70;99.90
43183;DHT22;28802;38.578;-0.066;2022-10-01T11:03:31;26.70;99.90
43183;DHT22;28802;38.578;-0.066;2022-10-01T11:06:11;26.70;99.90
43183;DHT22;28802;38.578;-0.066;2022-10-01T11:08:40;26.30;99.90
43183;DHT22;28802;38.578;-0.066;2022-10-01T11:11:31;26.30;99.90
43183;DHT22;28802;38.578;-0.066;2022-10-01T11:14:16;26.30;99.90
43183;DHT22;28802;38.578;-0.066;2022-10-01T11:30:32;26.10;99.90
43183;DHT22;28802;38.578;-0.066;2022-10-01T11:41:39;26.80;99.90
43183;DHT22;28802;38.578;-0.066;2022-10-01T11:44:13;26.30;99.90
43183;DHT22;28802;38.578;-0.066;2022-10-01T11:52:17;25.30;99.90
43183;DHT22;28802;38.578;-0.066;2022-10-01T12:10:40;25.10;99.90
43183;DHT22;28802;38.578;-0.066;2022-10-01T12:12:56;25.20;99.90
43183;DHT22;28802;38.578;-0.066;2022-10-01T12:15:29;25.70;99.90
43183;DHT22;28802;38.578;-0.066;2022-10-01T12:18:12;25.80;99.90
43183;DHT22;28802;38.578;-0.066;2022-10-01T12:20:45;25.60;99.90
43183;DHT22;28802;38.578;-0.066;2022-10-01T12:23:22;25.60;99.90
43183;DHT22;28802;38.578;-0.066;2022-10-01T12:31:42;25.70;99.90
43183;DHT22;28802;38.578;-0.066;2022-10-01T12:34:17;25.50;99.90
43183;DHT22;28802;38.578;-0.066;2022-10-01T12:42:36;24.60;99.90
43183;DHT22;28802;38.578;-0.066;2022-10-01T12:45:32;24.80;99.90
43183;DHT22;28802;38.578;-0.066;2022-10-01T12:53:37;25.00;99.90
43183;DHT22;28802;38.578;-0.066;2022-10-01T13:04:23;24.80;99.90
43183;DHT22;28802;38.578;-0.066;2022-10-01T13:07:29;25.00;99.90
43183;DHT22;28802;38.578;-0.066;2022-10-01T13:10:16;24.60;99.90
43183;DHT22;28802;38.578;-0.066;2022-10-01T13:12:57;24.60;99.90
43183;DHT22;28802;38.578;-0.066;2022-10-01T13:15:35;24.50;99.90
43183;DHT22;28802;38.578;-0.066;2022-10-01T13:23:55;24.00;99.90
43183;DHT22;28802;38.578;-0.066;2022-10-01T13:26:34;24.30;99.90
43183;DHT22;28802;38.578;-0.066;2022-10-01T13:29:17;24.00;99.90
43183;DHT22;28802;38.578;-0.066;2022-10-01T13:32:03;24.00;99.90
43183;DHT22;28802;38.578;-0.066;2022-10-01T13:34:45;24.00;99.90
43183;DHT22;28802;38.578;-0.066;2022-10-01T13:37:30;24.10;99.90
43183;DHT22;28802;38.578;-0.066;2022-10-01T13:39:58;24.30;99.90
43183;DHT22;28802;38.578;-0.066;2022-10-01T13:42:30;24.50;99.90
43183;DHT22;28802;38.578;-0.066;2022-10-01T13:45:05;24.50;99.90
43183;DHT22;28802;38.578;-0.066;2022-10-01T13:47:34;24.40;99.90
43183;DHT22;28802;38.578;-0.066;2022-10-01T13:52:44;24.20;99.90
43183;DHT22;28802;38.578;-0.066;2022-10-01T13:55:28;24.00;99.90
43183;DHT22;28802;38.578;-0.066;2022-10-01T13:58:06;24.10;99.90
43183;DHT22;28802;38.578;-0.066;2022-10-01T14:00:52;24.10;99.90
43183;DHT22;28802;38.578;-0.066;2022-10-01T14:06:12;23.90;99.90
43183;DHT22;28802;38.578;-0.066;2022-10-01T14:08:45;24.00;99.90
43183;DHT22;28802;38.578;-0.066;2022-10-01T14:11:22;23.60;99.90
43183;DHT22;28802;38.578;-0.066;2022-10-01T14:14:18;23.80;99.90
43183;DHT22;28802;38.578;-0.066;2022-10-01T14:17:05;23.60;99.90
43183;DHT22;28802;38.578;-0.066;2022-10-01T14:19:32;23.70;99.90
43183;DHT22;28802;38.578;-0.066;2022-10-01T14:25:11;23.60;99.90
43183;DHT22;28802;38.578;-0.066;2022-10-01T14:27:51;23.50;99.90
43183;DHT22;28802;38.578;-0.066;2022-10-01T14:30:24;23.50;99.90
43183;DHT22;28802;38.578;-0.066;2022-10-01T14:36:15;23.50;99.90
43183;DHT22;28802;38.578;-0.066;2022-10-01T14:38:42;23.50;99.90
43183;DHT22;28802;38.578;-0.066;2022-10-01T14:41:17;23.40;99.90
43183;DHT22;28802;38.578;-0.066;2022-10-01T14:43:43;23.30;99.90
43183;DHT22;28802;38.578;-0.066;2022-10-01T14:46:12;23.40;99.90
43183;DHT22;28802;38.578;-0.066;2022-10-01T14:48:38;23.40;99.90
43183;DHT22;28802;38.578;-0.066;2022-10-01T14:51:20;23.50;99.90
43183;DHT22;28802;38.578;-0.066;2022-10-01T14:53:47;23.60;99.90
43183;DHT22;28802;38.578;-0.066;2022-10-01T14:56:14;23.50;99.90
43183;DHT22;28802;38.578;-0.066;2022-10-01T14:58:46;23.40;99.90
43183;DHT22;28802;38.578;-0.066;2022-10-01T15:01:23;23.20;99.90
43183;DHT22;28802;38.578;-0.066;2022-10-01T15:03:51;23.30;99.90
43183;DHT22;28802;38.578;-0.066;2022-10-01T15:06:20;23.40;99.90
43183;DHT22;28802;38.578;-0.066;2022-10-01T15:08:51;23.40;99.90
43183;DHT22;28802;38.578;-0.066;2022-10-01T15:11:29;23.40;99.90
43183;DHT22;28802;38.578;-0.066;2022-10-01T15:14:09;23.40;99.90
43183;DHT22;28802;38.578;-0.066;2022-10-01T15:16:38;23.50;99.90
43183;DHT22;28802;38.578;-0.066;2022-10-01T15:19:11;23.60;99.90
43183;DHT22;28802;38.578;-0.066;2022-10-01T15:22:28;23.50;99.90
43183;DHT22;28802;38.578;-0.066;2022-10-01T15:24:44;23.20;99.90
43183;DHT22;28802;38.578;-0.066;2022-10-01T15:27:16;23.10;99.90
43183;DHT22;28802;38.578;-0.066;2022-10-01T15:29:45;23.30;99.90
43183;DHT22;28802;38.578;-0.066;2022-10-01T15:32:17;23.10;99.90
43183;DHT22;28802;38.578;-0.066;2022-10-01T15:34:57;23.10;99.90
43183;DHT22;28802;38.578;-0.066;2022-10-01T15:37:31;23.00;99.90
43183;DHT22;28802;38.578;-0.066;2022-10-01T15:39:58;23.10;99.90
43183;DHT22;28802;38.578;-0.066;2022-10-01T15:42:28;23.20;99.90
43183;DHT22;28802;38.578;-0.066;2022-10-01T15:47:38;23.50;99.90
43183;DHT22;28802;38.578;-0.066;2022-10-01T15:52:38;23.50;99.90
43183;DHT22;28802;38.578;-0.066;2022-10-01T15:55:23;23.30;99.90
43183;DHT22;28802;38.578;-0.066;2022-10-01T15:58:12;23.30;99.90
43183;DHT22;28802;38.578;-0.066;2022-10-01T16:03:21;23.30;99.90
43183;DHT22;28802;38.578;-0.066;2022-10-01T16:05:49;23.30;99.90
43183;DHT22;28802;38.578;-0.066;2022-10-01T16:08:18;23.40;99.90
43183;DHT22;28802;38.578;-0.066;2022-10-01T16:11:13;23.40;99.90
43183;DHT22;28802;38.578;-0.066;2022-10-01T16:13:36;23.30;99.90
43183;DHT22;28802;38.578;-0.066;2022-10-01T16:18:35;23.20;99.90
43183;DHT22;28802;38.578;-0.066;2022-10-01T16:21:06;23.20;99.90
43183;DHT22;28802;38.578;-0.066;2022-10-01T16:23:34;23.10;99.90
43183;DHT22;28802;38.578;-0.066;2022-10-01T16:26:02;23.10;99.90
43183;DHT22;28802;38.578;-0.066;2022-10-01T16:28:31;23.10;99.90
43183;DHT22;28802;38.578;-0.066;2022-10-01T16:30:58;23.20;99.90
43183;DHT22;28802;38.578;-0.066;2022-10-01T16:33:24;23.20;99.90
43183;DHT22;28802;38.578;-0.066;2022-10-01T16:35:53;23.20;99.90
43183;DHT22;28802;38.578;-0.066;2022-10-01T16:38:31;23.20;99.90
43183;DHT22;28802;38.578;-0.066;2022-10-01T16:40:58;23.20;99.90
43183;DHT22;28802;38.578;-0.066;2022-10-01T16:43:24;23.20;99.90
43183;DHT22;28802;38.578;-0.066;2022-10-01T16:45:49;23.20;99.90
43183;DHT22;28802;38.578;-0.066;2022-10-01T16:48:20;23.20;99.90
43183;DHT22;28802;38.578;-0.066;2022-10-01T16:50:49;23.20;99.90
43183;DHT22;28802;38.578;-0.066;2022-10-01T16:53:18;23.10;99.90
43183;DHT22;28802;38.578;-0.066;2022-10-01T16:55:45;23.10;99.90
43183;DHT22;28802;38.578;-0.066;2022-10-01T16:58:17;23.20;99.90
43183;DHT22;28802;38.578;-0.066;2022-10-01T17:00:45;23.20;99.90
43183;DHT22;28802;38.578;-0.066;2022-10-01T17:03:19;23.10;99.90
43183;DHT22;28802;38.578;-0.066;2022-10-01T17:05:48;23.10;99.90
43183;DHT22;28802;38.578;-0.066;2022-10-01T17:08:14;23.00;99.90
43183;DHT22;28802;38.578;-0.066;2022-10-01T17:10:50;23.10;99.90
43183;DHT22;28802;38.578;-0.066;2022-10-01T17:13:28;23.10;99.90
43183;DHT22;28802;38.578;-0.066;2022-10-01T17:15:56;23.00;99.90
43183;DHT22;28802;38.578;-0.066;2022-10-01T17:18:21;23.00;99.90
43183;DHT22;28802;38.578;-0.066;2022-10-01T17:20:48;23.00;99.90
43183;DHT22;28802;38.578;-0.066;2022-10-01T17:23:16;23.00;99.90
43183;DHT22;28802;38.578;-0.066;2022-10-01T17:25:44;22.90;99.90
43183;DHT22;28802;38.578;-0.066;2022-10-01T17:28:20;22.90;99.90
43183;DHT22;28802;38.578;-0.066;2022-10-01T17:30:48;23.00;99.90
43183;DHT22;28802;38.578;-0.066;2022-10-01T17:33:16;22.90;99.90
43183;DHT22;28802;38.578;-0.066;2022-10-01T17:35:45;22.90;99.90
43183;DHT22;28802;38.578;-0.066;2022-10-01T17:38:12;22.90;99.90
43183;DHT22;28802;38.578;-0.066;2022-10-01T17:40:40;22.90;99.90
43183;DHT22;28802;38.578;-0.066;2022-10-01T17:43:06;22.80;99.90
43183;DHT22;28802;38.578;-0.066;2022-10-01T17:45:32;22.70;99.90
43183;DHT22;28802;38.578;-0.066;2022-10-01T17:47:58;22.70;99.90
43183;DHT22;28802;38.578;-0.066;2022-10-01T17:50:26;22.70;99.90
43183;DHT22;28802;38.578;-0.066;2022-10-01T17:52:51;22.70;99.90
43183;DHT22;28802;38.578;-0.066;2022-10-01T17:55:18;22.70;99.90
43183;DHT22;28802;38.578;-0.066;2022-10-01T17:57:45;22.70;99.90
43183;DHT22;28802;38.578;-0.066;2022-10-01T18:00:11;22.60;99.90
43183;DHT22;28802;38.578;-0.066;2022-10-01T18:02:40;22.60;99.90
43183;DHT22;28802;38.578;-0.066;2022-10-01T18:05:07;22.50;99.90
43183;DHT22;28802;38.578;-0.066;2022-10-01T18:07:35;22.40;99.90
43183;DHT22;28802;38.578;-0.066;2022-10-01T18:10:06;22.50;99.90